Huvudsida
METAR-TAF:

METAR-TAF

Flygplatser :

Olbia-Costa Smeraldas flygplats

Olbia, Italien

latitud: 40-54N, longitud: 009-31E, höjd: 11 m

Aktuellt väderrapport

Denna rapport gjordes för 24 minuter sedan, klockan 07:20 UTC
Vind 18 kt från sydväst
Temperatur 12°C
Fuktighet 71%
Tryck 1006 hPa
Sikt 10 km eller mer
Spridda moln på en höjd av 2000 ft

METAR: LIEO 250720Z 23018KT 9999 SCT020 12/07 Q1006

Tid: 08:44 (07:44 UTC)

Väderprognos

Denna rapport gjordes för 2 timmar och 44 minuter sedan, klockan 05:00 UTC
Prognos gäller från 25 kl. 06 UTC till 26 kl. 06 UTC
Vind 15 kt från väst i byarna ända upp till 25 kt
Sikt 10 km eller mer
Spridda moln på en höjd av 3000 ft
Blir
från 25 kl. 20 UTC till 25 kl. 22 UTC
Vind 10 kt från väst/sydväst

TAF: LIEO 250500Z 2506/2606 26015G25KT 9999 SCT030 BECMG 2520/2522 25010KT

Aktuella väderrapporter och prognoser från 4000 flygplatser (METAR- och TAF-rapporter).

De tillgängliga stationerna syns som gula och röda prickar på kartan.

För musen över prickarna för att se namnen på stationerna.

Klicka sedan för att få väderrapporter och prognoser.

För att ändra kartan: Klicka på de gröna knapparna med ett svart kors på för att zooma in; den gröna knappen med ett streck på för att zooma ut; eller på de gröna pilarna för angränsande kartor.


METAR-TAF: